This is the latest recevied weather packets stored in our database for station/object DO1BDB-12. If no packets are shown the sender has not sent any weather packets the latest 10 day(s).
| Time | Temp. | Humidity | Pressure | Rain* | Wind** | Luminosity | Snow |
|---|---|---|---|---|---|---|---|
| 1777293271 | 20° C | 31% | 102.4 hPa | - | - | - | - |
| 1777293205 | 20° C | 32% | 102.4 hPa | - | - | - | - |
| 1777293139 | 20° C | 31% | 102.4 hPa | - | - | - | - |
| 1777293074 | 20° C | 31% | 102.4 hPa | - | - | - | - |
| 1777293008 | 20.56° C | 30% | 102.4 hPa | - | - | - | - |
| 1777292942 | 20.56° C | 31% | 102.4 hPa | - | - | - | - |
| 1777292876 | 20° C | 31% | 102.4 hPa | - | - | - | - |
| 1777292810 | 20° C | 32% | 102.4 hPa | - | - | - | - |
| 1777292745 | 20° C | 30% | 102.4 hPa | - | - | - | - |
| 1777292679 | 18.89° C | 34% | 102.4 hPa | - | - | - | - |
| 1777292613 | 19.44° C | 31% | 102.4 hPa | - | - | - | - |
| 1777292547 | 18.89° C | 31% | 102.4 hPa | - | - | - | - |
| 1777292482 | 20° C | 32% | 102.4 hPa | - | - | - | - |
| 1777292415 | 20° C | 32% | 102.4 hPa | - | - | - | - |
| 1777292349 | 20° C | 32% | 102.4 hPa | - | - | - | - |
| 1777292284 | 20° C | 32% | 102.4 hPa | - | - | - | - |
| 1777292218 | 20.56° C | 32% | 102.4 hPa | - | - | - | - |
| 1777292152 | 19.44° C | 33% | 102.4 hPa | - | - | - | - |
| 1777292086 | 20° C | 32% | 102.4 hPa | - | - | - | - |
| 1777292020 | 20° C | 32% | 102.4 hPa | - | - | - | - |
| 1777291954 | 17.78° C | 33% | 102.4 hPa | - | - | - | - |
| 1777291889 | 16.67° C | 32% | 102.4 hPa | - | - | - | - |
| 1777291823 | 20° C | 29% | 102.4 hPa | - | - | - | - |
| 1777291757 | 20.56° C | 30% | 102.4 hPa | - | - | - | - |
| 1777291691 | 21.11° C | 30% | 102.4 hPa | - | - | - | - |
* Rain since midnight (hover to see other rain measurements)
** Current wind speed in m/s (hover to see current wind gust speed)